createdAt,value
2018-09-29T00:00:45.613Z,21.60
2018-09-29T00:03:14.876Z,21.60
2018-09-29T00:05:44.044Z,21.60
2018-09-29T00:08:13.244Z,21.60
2018-09-29T00:10:42.453Z,21.60
2018-09-29T00:13:11.847Z,21.60
2018-09-29T00:15:41.045Z,21.60
2018-09-29T00:18:10.265Z,21.50
2018-09-29T00:20:39.511Z,21.50
2018-09-29T00:23:08.740Z,21.50
2018-09-29T00:25:37.936Z,21.50
2018-09-29T00:28:07.109Z,21.50
2018-09-29T00:30:36.300Z,21.50
2018-09-29T00:33:05.598Z,21.50
2018-09-29T00:35:34.791Z,21.60
2018-09-29T00:38:03.960Z,21.50
2018-09-29T00:40:33.148Z,21.60
2018-09-29T00:43:02.380Z,21.50
2018-09-29T00:45:31.686Z,21.50
2018-09-29T00:48:00.857Z,21.60
2018-09-29T00:50:30.054Z,21.50
2018-09-29T00:52:59.217Z,21.50
2018-09-29T00:55:28.443Z,21.50
2018-09-29T00:57:57.641Z,21.50
2018-09-29T01:00:26.839Z,21.50
2018-09-29T01:02:56.063Z,21.50
2018-09-29T01:05:25.242Z,21.50
2018-09-29T01:07:54.461Z,21.50
2018-09-29T01:10:23.644Z,21.50
2018-09-29T01:12:52.964Z,21.50
2018-09-29T01:15:22.138Z,21.50
2018-09-29T01:17:51.441Z,21.50
2018-09-29T01:20:20.632Z,21.50
2018-09-29T01:22:49.856Z,21.50
2018-09-29T01:25:19.122Z,21.50
2018-09-29T01:27:48.301Z,21.50
2018-09-29T01:30:17.517Z,21.50
2018-09-29T01:32:46.821Z,21.50
2018-09-29T01:35:16.029Z,21.50
2018-09-29T01:37:45.216Z,21.50
2018-09-29T01:40:14.795Z,21.40
2018-09-29T01:42:44.076Z,21.50
2018-09-29T01:45:13.256Z,21.50
2018-09-29T01:47:42.452Z,21.40
2018-09-29T01:50:11.654Z,21.40
2018-09-29T01:52:40.850Z,21.50
2018-09-29T01:55:10.040Z,21.50
2018-09-29T01:57:39.243Z,21.40
2018-09-29T02:00:08.436Z,21.40
2018-09-29T02:02:37.656Z,21.40
2018-09-29T02:05:06.913Z,21.40
2018-09-29T02:07:36.104Z,21.40
2018-09-29T02:10:05.284Z,21.40
2018-09-29T02:12:34.544Z,21.40
2018-09-29T02:15:03.810Z,21.40
2018-09-29T02:17:32.993Z,21.40
2018-09-29T02:20:02.256Z,21.40
2018-09-29T02:22:31.571Z,21.40
2018-09-29T02:25:00.775Z,21.40
2018-09-29T02:27:29.992Z,21.40
2018-09-29T02:29:59.200Z,21.40
2018-09-29T02:32:28.428Z,21.40
2018-09-29T02:34:57.614Z,21.40
2018-09-29T02:37:26.792Z,21.40
2018-09-29T02:39:55.983Z,21.40
2018-09-29T02:42:25.225Z,21.40
2018-09-29T02:44:54.561Z,21.40
2018-09-29T02:47:23.788Z,21.40
2018-09-29T02:49:52.982Z,21.40
2018-09-29T02:52:22.387Z,21.40
2018-09-29T02:54:51.590Z,21.30
2018-09-29T02:57:20.789Z,21.40
2018-09-29T02:59:49.975Z,21.40
2018-09-29T03:02:19.213Z,21.40
2018-09-29T03:04:48.408Z,21.30
2018-09-29T03:07:17.631Z,21.40
2018-09-29T03:09:46.849Z,21.40
2018-09-29T03:12:16.104Z,21.30
2018-09-29T03:14:45.298Z,21.40
2018-09-29T03:17:14.886Z,21.40
2018-09-29T03:19:44.081Z,21.40
2018-09-29T03:22:13.305Z,21.30
2018-09-29T03:24:42.652Z,21.30
2018-09-29T03:27:11.877Z,21.30
2018-09-29T03:29:41.050Z,21.30
2018-09-29T03:32:10.310Z,21.30
2018-09-29T03:34:39.509Z,21.30
2018-09-29T03:37:08.775Z,21.30
2018-09-29T03:39:37.967Z,21.30
2018-09-29T03:42:07.271Z,21.30
2018-09-29T03:44:36.464Z,21.30
2018-09-29T03:47:05.912Z,21.30
2018-09-29T03:49:35.164Z,21.30
2018-09-29T03:52:04.439Z,21.40
2018-09-29T03:54:33.930Z,21.30
2018-09-29T03:57:03.756Z,21.40
2018-09-29T03:59:33.196Z,21.30
2018-09-29T04:02:02.443Z,21.30
2018-09-29T04:04:32.038Z,21.30
2018-09-29T04:07:01.396Z,21.30
2018-09-29T04:09:30.671Z,21.30
2018-09-29T04:12:00.069Z,21.30
2018-09-29T04:14:30.028Z,21.30
2018-09-29T04:16:59.939Z,21.30
2018-09-29T04:19:29.312Z,21.30
2018-09-29T04:21:58.713Z,21.30
2018-09-29T04:24:27.941Z,21.30
2018-09-29T04:26:57.523Z,21.30
2018-09-29T04:29:27.457Z,21.30
2018-09-29T04:31:56.684Z,21.30
2018-09-29T04:34:25.918Z,21.30
2018-09-29T04:36:55.156Z,21.30
2018-09-29T04:39:24.452Z,21.30
2018-09-29T04:41:53.692Z,21.30
2018-09-29T04:44:22.952Z,21.30
2018-09-29T04:46:52.149Z,21.30
2018-09-29T04:49:21.451Z,21.30
2018-09-29T04:51:50.929Z,21.30
2018-09-29T04:54:20.382Z,21.30
2018-09-29T04:56:49.899Z,21.30
2018-09-29T04:59:19.468Z,21.30
2018-09-29T05:01:49.026Z,21.30
2018-09-29T05:04:18.633Z,21.30
2018-09-29T05:06:48.201Z,21.30
2018-09-29T05:09:17.697Z,21.30
2018-09-29T05:11:46.997Z,21.30
2018-09-29T05:14:16.272Z,21.30
2018-09-29T05:16:46.193Z,21.30
2018-09-29T05:19:16.271Z,21.30
2018-09-29T05:21:46.286Z,21.30
2018-09-29T05:24:16.137Z,21.30
2018-09-29T05:26:45.363Z,21.30
2018-09-29T05:29:14.692Z,21.30
2018-09-29T05:31:44.224Z,21.40
2018-09-29T05:34:13.598Z,21.50
2018-09-29T05:36:43.112Z,21.50
2018-09-29T05:39:14.252Z,21.50
2018-09-29T05:41:44.677Z,21.60
2018-09-29T05:44:15.427Z,21.60
2018-09-29T05:46:45.292Z,21.60
2018-09-29T05:49:15.122Z,21.60
2018-09-29T05:51:44.583Z,21.60
2018-09-29T05:54:14.480Z,21.60
2018-09-29T05:56:44.615Z,21.60
2018-09-29T05:59:14.486Z,21.60
2018-09-29T06:01:43.831Z,21.60
2018-09-29T06:04:13.066Z,21.60
2018-09-29T06:06:42.637Z,21.60
2018-09-29T06:09:12.825Z,21.50
2018-09-29T06:11:42.433Z,21.50
2018-09-29T06:14:11.672Z,21.50
2018-09-29T06:16:40.930Z,21.50
2018-09-29T06:19:10.210Z,21.50
2018-09-29T06:21:39.755Z,21.50
2018-09-29T06:24:09.745Z,21.50
2018-09-29T06:26:38.995Z,21.50
2018-09-29T06:29:08.321Z,21.50
2018-09-29T06:31:37.832Z,21.50
2018-09-29T06:34:07.131Z,21.50
2018-09-29T06:36:36.493Z,21.50
2018-09-29T06:39:08.539Z,21.40
2018-09-29T06:41:37.916Z,21.40
2018-09-29T06:44:07.247Z,21.40
2018-09-29T06:46:36.695Z,21.40
2018-09-29T06:49:06.303Z,21.40
2018-09-29T06:51:35.636Z,21.40
2018-09-29T06:54:05.379Z,21.50
2018-09-29T06:56:34.624Z,21.40
2018-09-29T06:59:03.851Z,21.50
2018-09-29T07:01:33.223Z,21.50
2018-09-29T07:04:03.032Z,21.40
2018-09-29T07:06:32.302Z,21.50
2018-09-29T07:09:01.669Z,21.50
2018-09-29T07:11:31.280Z,21.50
2018-09-29T07:14:00.567Z,21.50
2018-09-29T07:16:30.001Z,21.50
2018-09-29T07:18:59.315Z,21.50
2018-09-29T07:21:28.741Z,21.30
2018-09-29T07:23:58.144Z,20.60
2018-09-29T07:26:27.478Z,21.00
2018-09-29T07:28:56.774Z,21.30
2018-09-29T07:31:26.345Z,21.70
2018-09-29T07:33:55.554Z,21.70
2018-09-29T07:36:24.989Z,21.50
2018-09-29T07:38:54.378Z,21.60
2018-09-29T07:41:23.693Z,21.70
2018-09-29T07:43:53.055Z,21.70
2018-09-29T07:46:22.413Z,21.30
2018-09-29T07:48:51.799Z,21.10
2018-09-29T07:51:21.385Z,20.20
2018-09-29T07:53:50.665Z,19.90
2018-09-29T07:56:20.013Z,19.70
2018-09-29T07:58:49.324Z,18.90
2018-09-29T08:01:18.812Z,18.50
2018-09-29T08:03:48.113Z,18.40
2018-09-29T08:06:17.419Z,19.00
2018-09-29T08:08:46.899Z,19.40
2018-09-29T08:11:16.366Z,19.50
2018-09-29T08:13:45.748Z,20.10
2018-09-29T08:16:15.155Z,20.50
2018-09-29T08:18:44.476Z,20.70
2018-09-29T08:21:13.860Z,20.90
2018-09-29T08:23:43.206Z,20.90
2018-09-29T08:26:12.582Z,21.00
2018-09-29T08:28:41.972Z,21.10
2018-09-29T08:31:11.413Z,21.10
2018-09-29T08:33:40.765Z,21.10
2018-09-29T08:36:10.169Z,21.10
2018-09-29T08:38:39.646Z,21.20
2018-09-29T08:41:09.176Z,21.20
2018-09-29T08:43:38.560Z,21.20
2018-09-29T08:46:08.033Z,21.20
2018-09-29T08:48:37.284Z,21.20
2018-09-29T08:51:07.590Z,21.30
2018-09-29T08:53:36.995Z,21.20
2018-09-29T08:56:06.421Z,21.30
2018-09-29T08:58:35.648Z,21.30
2018-09-29T09:01:05.081Z,21.30
2018-09-29T09:03:34.385Z,21.30
2018-09-29T09:06:03.704Z,21.30
2018-09-29T09:08:33.000Z,21.30
2018-09-29T09:11:02.250Z,21.30
2018-09-29T09:13:32.079Z,21.40
2018-09-29T09:16:01.381Z,21.40
2018-09-29T09:18:30.652Z,21.40
2018-09-29T09:20:59.870Z,21.40
2018-09-29T09:23:29.231Z,21.40
2018-09-29T09:25:58.545Z,21.50
2018-09-29T09:28:27.805Z,21.50
2018-09-29T09:30:57.134Z,21.50
2018-09-29T09:33:26.403Z,21.50
2018-09-29T09:35:55.768Z,21.50
2018-09-29T09:38:25.152Z,21.50
2018-09-29T09:40:54.520Z,21.40
2018-09-29T09:43:24.007Z,21.40
2018-09-29T09:45:53.519Z,21.30
2018-09-29T09:48:22.797Z,21.30
2018-09-29T09:50:52.095Z,21.30
2018-09-29T09:53:21.524Z,21.30
2018-09-29T09:55:50.796Z,21.40
2018-09-29T09:58:20.151Z,21.40
2018-09-29T10:00:54.416Z,21.40
2018-09-29T10:03:33.177Z,21.50
2018-09-29T10:06:02.608Z,21.50
2018-09-29T10:08:31.993Z,21.50
2018-09-29T10:11:01.439Z,21.50
2018-09-29T10:13:30.831Z,21.50
2018-09-29T10:16:00.373Z,21.50
2018-09-29T10:18:29.703Z,21.50
2018-09-29T10:20:59.155Z,21.50
2018-09-29T10:23:28.496Z,21.70
2018-09-29T10:25:57.883Z,21.80
2018-09-29T10:28:27.190Z,21.80
2018-09-29T10:30:56.563Z,21.80
2018-09-29T10:33:25.988Z,21.90
2018-09-29T10:35:55.338Z,21.90
2018-09-29T10:38:24.720Z,21.90
2018-09-29T10:40:54.086Z,21.90
2018-09-29T10:43:23.384Z,21.90
2018-09-29T10:45:53.336Z,21.90
2018-09-29T10:48:22.673Z,21.90
2018-09-29T10:50:51.952Z,21.90
2018-09-29T10:53:21.313Z,21.90
2018-09-29T10:55:50.565Z,21.90
2018-09-29T10:58:19.823Z,21.90
2018-09-29T11:00:49.065Z,21.90
2018-09-29T11:03:18.414Z,21.90
2018-09-29T11:05:47.668Z,22.00
2018-09-29T11:08:16.966Z,22.00
2018-09-29T11:10:46.162Z,22.00
2018-09-29T11:13:15.492Z,22.00
2018-09-29T11:15:44.657Z,22.00
2018-09-29T11:18:13.881Z,22.00
2018-09-29T11:20:43.560Z,22.00
2018-09-29T11:23:13.000Z,22.00
2018-09-29T11:25:42.293Z,22.00
2018-09-29T11:28:11.664Z,22.00
2018-09-29T11:30:40.933Z,22.00
2018-09-29T11:33:10.304Z,22.00
2018-09-29T11:35:39.683Z,22.00
2018-09-29T11:38:08.926Z,22.00
2018-09-29T11:40:38.317Z,22.00
2018-09-29T11:43:07.657Z,22.00
2018-09-29T11:45:37.013Z,22.00
2018-09-29T11:48:06.376Z,22.00
2018-09-29T11:50:35.949Z,22.00
2018-09-29T11:53:05.533Z,22.00
2018-09-29T11:55:35.029Z,22.00
2018-09-29T11:58:04.620Z,22.00
2018-09-29T12:00:33.950Z,22.00
2018-09-29T12:03:03.372Z,22.10
2018-09-29T12:05:32.685Z,22.10
2018-09-29T12:08:02.054Z,22.00
2018-09-29T12:10:31.423Z,22.10
2018-09-29T12:13:01.406Z,22.10
2018-09-29T12:15:30.784Z,22.10
2018-09-29T12:18:00.137Z,22.10
2018-09-29T12:20:29.472Z,22.10
2018-09-29T12:22:58.868Z,22.20
2018-09-29T12:25:28.229Z,22.20
2018-09-29T12:27:57.497Z,22.20
2018-09-29T12:30:26.853Z,22.20
2018-09-29T12:32:56.201Z,22.20
2018-09-29T12:35:25.535Z,22.20
2018-09-29T12:37:54.831Z,22.20
2018-09-29T12:40:24.115Z,22.20
2018-09-29T12:42:53.498Z,22.20
2018-09-29T12:45:22.717Z,22.30
2018-09-29T12:47:52.080Z,22.30
2018-09-29T12:50:21.492Z,22.20
2018-09-29T12:52:50.812Z,22.30
2018-09-29T12:55:20.129Z,22.20
2018-09-29T12:57:49.470Z,22.20
2018-09-29T13:00:18.723Z,22.20
2018-09-29T13:02:48.184Z,22.30
2018-09-29T13:05:24.185Z,22.30
2018-09-29T13:07:53.590Z,22.30
2018-09-29T13:10:22.887Z,22.20
2018-09-29T13:12:52.352Z,22.20
2018-09-29T13:15:21.629Z,22.30
2018-09-29T13:17:50.877Z,22.20
2018-09-29T13:20:20.288Z,22.30
2018-09-29T13:22:49.655Z,22.30
2018-09-29T13:25:19.113Z,22.20
2018-09-29T13:27:48.496Z,22.20
2018-09-29T13:30:17.869Z,22.20
2018-09-29T13:32:58.328Z,22.20
2018-09-29T13:35:27.840Z,22.20
2018-09-29T13:37:57.428Z,22.30
2018-09-29T13:40:26.814Z,22.20
2018-09-29T13:43:06.645Z,22.20
2018-09-29T13:46:24.245Z,22.20
2018-09-29T13:52:33.545Z,22.20
2018-09-29T13:55:03.095Z,22.20
2018-09-29T13:57:38.068Z,22.20
2018-09-29T14:00:09.276Z,22.20
2018-09-29T14:03:08.284Z,22.20
2018-09-29T14:05:44.148Z,22.20
2018-09-29T14:08:15.642Z,22.20
2018-09-29T14:10:51.916Z,22.20
2018-09-29T14:13:59.573Z,22.20
2018-09-29T14:16:28.901Z,22.20
2018-09-29T14:18:58.161Z,22.10
2018-09-29T14:21:27.631Z,22.20
2018-09-29T14:23:57.025Z,22.20
2018-09-29T14:26:27.197Z,22.10
2018-09-29T14:28:56.468Z,22.10
2018-09-29T14:31:25.961Z,22.10
2018-09-29T14:33:55.421Z,22.10
2018-09-29T14:36:24.729Z,22.10
2018-09-29T14:38:54.446Z,22.10
2018-09-29T14:41:24.098Z,22.10
2018-09-29T14:43:53.512Z,22.10
2018-09-29T14:46:22.969Z,22.10
2018-09-29T14:48:52.220Z,22.10
2018-09-29T14:51:21.608Z,22.10
2018-09-29T14:53:50.943Z,22.00
2018-09-29T14:56:20.272Z,22.10
2018-09-29T14:58:49.611Z,22.00
2018-09-29T15:01:18.908Z,22.00
2018-09-29T15:03:48.238Z,22.00
2018-09-29T15:06:17.631Z,22.00
2018-09-29T15:08:46.904Z,22.00
2018-09-29T15:11:16.247Z,22.00
2018-09-29T15:13:45.606Z,22.00
2018-09-29T15:16:14.893Z,22.00
2018-09-29T15:18:44.317Z,22.00
2018-09-29T15:21:13.703Z,22.00
2018-09-29T15:23:42.954Z,22.00
2018-09-29T15:26:12.369Z,22.00
2018-09-29T15:28:41.694Z,22.00
2018-09-29T15:31:11.075Z,22.00
2018-09-29T15:33:40.419Z,22.00
2018-09-29T15:36:09.719Z,22.00
2018-09-29T15:38:39.046Z,22.00
2018-09-29T15:41:08.521Z,21.90
2018-09-29T15:43:37.940Z,21.90
2018-09-29T15:46:07.296Z,21.90
2018-09-29T15:48:36.643Z,21.90
2018-09-29T15:51:07.053Z,21.80
2018-09-29T15:53:36.350Z,21.80
2018-09-29T15:56:05.666Z,21.80
2018-09-29T15:58:34.977Z,21.80
2018-09-29T16:01:05.839Z,21.80
2018-09-29T16:03:35.212Z,21.80
2018-09-29T16:06:04.543Z,21.80
2018-09-29T16:08:34.200Z,21.80
2018-09-29T16:11:03.750Z,21.80
2018-09-29T16:13:33.076Z,21.80
2018-09-29T16:16:02.363Z,21.80
2018-09-29T16:18:31.663Z,21.80
2018-09-29T16:21:00.987Z,21.80
2018-09-29T16:23:30.326Z,21.80
2018-09-29T16:26:01.338Z,21.80
2018-09-29T16:28:30.628Z,21.80
2018-09-29T16:30:59.962Z,21.80
2018-09-29T16:33:29.313Z,21.80
2018-09-29T16:35:58.748Z,21.80
2018-09-29T16:38:28.120Z,21.80
2018-09-29T16:40:57.781Z,21.80
2018-09-29T16:43:27.099Z,21.80
2018-09-29T16:45:56.480Z,21.80
2018-09-29T16:48:25.752Z,21.80
2018-09-29T16:50:55.130Z,21.80
2018-09-29T16:53:24.459Z,21.80
2018-09-29T16:55:53.882Z,21.80
2018-09-29T16:58:23.321Z,21.80
2018-09-29T17:00:52.716Z,21.80
2018-09-29T17:03:22.104Z,21.80
2018-09-29T17:05:51.487Z,21.90
2018-09-29T17:08:20.859Z,21.90
2018-09-29T17:10:50.260Z,21.80
2018-09-29T17:13:19.889Z,21.90
2018-09-29T17:15:49.423Z,21.80
2018-09-29T17:18:18.764Z,21.70
2018-09-29T17:20:48.288Z,21.80
2018-09-29T17:23:17.688Z,21.80
2018-09-29T17:25:47.026Z,21.70
2018-09-29T17:28:16.317Z,21.70
2018-09-29T17:30:45.648Z,21.70
2018-09-29T17:33:14.939Z,21.70
2018-09-29T17:35:44.326Z,21.70
2018-09-29T17:38:13.601Z,21.70
2018-09-29T17:40:42.904Z,21.70
2018-09-29T17:43:12.229Z,21.70
2018-09-29T17:45:41.597Z,21.70
2018-09-29T17:48:10.964Z,21.70
2018-09-29T17:50:40.400Z,21.70
2018-09-29T17:53:09.891Z,21.70
2018-09-29T17:55:39.186Z,21.70
2018-09-29T17:58:08.470Z,21.70
2018-09-29T18:00:37.805Z,21.60
2018-09-29T18:03:07.214Z,21.60
2018-09-29T18:05:36.517Z,21.60
2018-09-29T18:08:05.995Z,21.60
2018-09-29T18:10:35.279Z,21.60
2018-09-29T18:13:04.548Z,21.60
2018-09-29T18:15:33.775Z,21.60
2018-09-29T18:18:03.581Z,21.60
2018-09-29T18:20:32.944Z,21.60
2018-09-29T18:23:02.332Z,21.60
2018-09-29T18:25:31.977Z,21.60
2018-09-29T18:28:01.304Z,21.60
2018-09-29T18:30:30.589Z,21.60
2018-09-29T18:32:59.925Z,21.60
2018-09-29T18:35:29.240Z,21.60
2018-09-29T18:37:58.536Z,21.60
2018-09-29T18:40:27.865Z,21.60
2018-09-29T18:42:57.272Z,21.60
2018-09-29T18:45:26.554Z,21.60
2018-09-29T18:47:55.860Z,21.60
2018-09-29T18:50:25.473Z,21.60
2018-09-29T18:52:55.243Z,21.50
2018-09-29T18:55:24.608Z,21.60
2018-09-29T18:57:53.915Z,21.60
2018-09-29T19:00:23.208Z,21.60
2018-09-29T19:02:52.580Z,21.60
2018-09-29T19:05:21.825Z,21.60
2018-09-29T19:07:51.308Z,21.50
2018-09-29T19:10:20.645Z,21.50
2018-09-29T19:12:50.153Z,21.50
2018-09-29T19:15:19.652Z,21.50
2018-09-29T19:17:48.942Z,21.50
2018-09-29T19:20:18.263Z,21.50
2018-09-29T19:22:47.737Z,21.50
2018-09-29T19:25:17.044Z,21.50
2018-09-29T19:27:46.331Z,21.50
2018-09-29T19:30:15.701Z,21.50
2018-09-29T19:32:45.049Z,21.50
2018-09-29T19:35:14.467Z,21.50
2018-09-29T19:37:43.741Z,21.50
2018-09-29T19:40:13.107Z,21.50
2018-09-29T19:42:42.669Z,21.50
2018-09-29T19:45:12.035Z,21.50
2018-09-29T19:47:41.381Z,21.50
2018-09-29T19:50:10.757Z,21.50
2018-09-29T19:52:40.049Z,21.50
2018-09-29T19:55:09.762Z,21.50
2018-09-29T19:57:39.027Z,21.50
2018-09-29T20:00:08.632Z,21.50
2018-09-29T20:02:37.951Z,21.50
2018-09-29T20:05:07.255Z,21.50
2018-09-29T20:07:37.483Z,21.50
2018-09-29T20:10:06.911Z,21.50
2018-09-29T20:12:36.196Z,21.50
2018-09-29T20:15:05.533Z,21.50
2018-09-29T20:17:34.943Z,21.50
2018-09-29T20:20:04.261Z,21.50
2018-09-29T20:22:33.613Z,21.50
2018-09-29T20:25:02.922Z,21.40
2018-09-29T20:27:32.486Z,21.50
2018-09-29T20:30:01.949Z,21.50
2018-09-29T20:32:31.495Z,21.40
2018-09-29T20:35:00.890Z,21.50
2018-09-29T20:37:30.331Z,21.40
2018-09-29T20:39:59.705Z,21.40
2018-09-29T20:42:29.400Z,21.40
2018-09-29T20:44:58.857Z,21.40
2018-09-29T20:47:28.320Z,21.40
2018-09-29T20:49:57.900Z,21.40
2018-09-29T20:52:27.460Z,21.40
2018-09-29T20:54:56.850Z,21.40
2018-09-29T20:57:26.292Z,21.40
2018-09-29T20:59:56.173Z,21.40
2018-09-29T21:02:25.783Z,21.40
2018-09-29T21:04:55.205Z,21.40
2018-09-29T21:07:24.755Z,21.40
2018-09-29T21:09:54.127Z,21.40
2018-09-29T21:12:23.469Z,21.40
2018-09-29T21:14:52.664Z,21.40
2018-09-29T21:17:21.862Z,21.50
2018-09-29T21:19:51.061Z,21.40
2018-09-29T21:22:20.381Z,21.40
2018-09-29T21:24:49.584Z,21.40
2018-09-29T21:27:18.786Z,21.40
2018-09-29T21:29:47.978Z,21.40
2018-09-29T21:32:17.546Z,21.40
2018-09-29T21:34:46.760Z,21.40
2018-09-29T21:37:15.956Z,21.30
2018-09-29T21:39:45.137Z,21.30
2018-09-29T21:42:14.413Z,21.30
2018-09-29T21:44:43.604Z,21.30
2018-09-29T21:47:12.804Z,21.30
2018-09-29T21:49:42.037Z,21.30
2018-09-29T21:52:11.318Z,21.30
2018-09-29T21:54:40.600Z,21.30
2018-09-29T21:57:09.802Z,21.30
2018-09-29T21:59:39.200Z,21.20
2018-09-29T22:02:08.409Z,21.30
2018-09-29T22:04:37.693Z,21.30
2018-09-29T22:07:06.845Z,21.20
2018-09-29T22:09:36.074Z,21.20
2018-09-29T22:12:05.296Z,21.20
2018-09-29T22:14:34.492Z,21.20
2018-09-29T22:17:03.696Z,21.30
2018-09-29T22:19:32.889Z,21.20
2018-09-29T22:22:02.088Z,21.20
2018-09-29T22:24:31.286Z,21.20
2018-09-29T22:27:00.761Z,21.20
2018-09-29T22:29:29.946Z,21.20
2018-09-29T22:31:59.189Z,21.20
2018-09-29T22:34:28.379Z,21.20
2018-09-29T22:36:57.577Z,21.20
2018-09-29T22:39:26.754Z,21.20
2018-09-29T22:41:55.984Z,21.20
2018-09-29T22:44:25.174Z,21.20
2018-09-29T22:46:54.373Z,21.20
2018-09-29T22:49:23.575Z,21.20
2018-09-29T22:51:52.941Z,21.20
2018-09-29T22:54:22.145Z,21.20
2018-09-29T22:56:51.342Z,21.20
2018-09-29T22:59:20.616Z,21.20
2018-09-29T23:01:49.871Z,21.20
2018-09-29T23:04:19.076Z,21.20
2018-09-29T23:06:48.241Z,21.20
2018-09-29T23:09:17.720Z,21.20
2018-09-29T23:11:46.971Z,21.20
2018-09-29T23:14:16.159Z,21.20
2018-09-29T23:16:45.343Z,21.20
2018-09-29T23:19:14.869Z,21.20
2018-09-29T23:21:44.067Z,21.10
2018-09-29T23:24:13.264Z,21.10
2018-09-29T23:26:42.461Z,21.20
2018-09-29T23:29:11.661Z,21.10
2018-09-29T23:31:40.912Z,21.20
2018-09-29T23:34:10.104Z,21.20
2018-09-29T23:36:39.276Z,21.10
2018-09-29T23:39:09.960Z,21.10
2018-09-29T23:41:39.364Z,21.10
2018-09-29T23:44:08.765Z,21.10
2018-09-29T23:46:37.936Z,21.10
2018-09-29T23:49:07.169Z,21.10
2018-09-29T23:51:36.388Z,21.10
2018-09-29T23:54:05.632Z,21.10
2018-09-29T23:56:34.836Z,21.10
2018-09-29T23:59:04.031Z,21.10
